sensor_id;sensor_type;location;lat;lon;timestamp;pressure;altitude;pressure_sealevel;temperature;humidity
24306;BME280;12423;48.768;8.850;2023-02-13T00:01:26;98873.44;;;-0.12;100.00
24306;BME280;12423;48.768;8.850;2023-02-13T00:03:27;98859.44;;;-0.14;100.00
24306;BME280;12423;48.768;8.850;2023-02-13T00:05:28;98869.06;;;-0.15;100.00
24306;BME280;12423;48.768;8.850;2023-02-13T00:07:29;98864.66;;;-0.11;100.00
24306;BME280;12423;48.768;8.850;2023-02-13T00:09:30;98862.13;;;-0.17;100.00
24306;BME280;12423;48.768;8.850;2023-02-13T00:11:31;98851.63;;;-0.19;100.00
24306;BME280;12423;48.768;8.850;2023-02-13T00:13:33;98849.91;;;-0.23;100.00
24306;BME280;12423;48.768;8.850;2023-02-13T00:15:35;98855.25;;;-0.26;100.00
24306;BME280;12423;48.768;8.850;2023-02-13T00:17:36;98853.47;;;-0.26;100.00
24306;BME280;12423;48.768;8.850;2023-02-13T00:19:37;98849.03;;;-0.21;100.00
24306;BME280;12423;48.768;8.850;2023-02-13T00:21:38;98847.34;;;-0.25;100.00
24306;BME280;12423;48.768;8.850;2023-02-13T00:23:39;98852.59;;;-0.25;100.00
24306;BME280;12423;48.768;8.850;2023-02-13T00:25:40;98849.13;;;-0.30;100.00
24306;BME280;12423;48.768;8.850;2023-02-13T00:27:41;98857.00;;;-0.30;100.00
24306;BME280;12423;48.768;8.850;2023-02-13T00:29:42;98854.38;;;-0.30;100.00
24306;BME280;12423;48.768;8.850;2023-02-13T00:31:43;98845.72;;;-0.35;100.00
24306;BME280;12423;48.768;8.850;2023-02-13T00:33:44;98849.25;;;-0.36;100.00
24306;BME280;12423;48.768;8.850;2023-02-13T00:35:45;98852.72;;;-0.34;100.00
24306;BME280;12423;48.768;8.850;2023-02-13T00:37:46;98856.25;;;-0.38;100.00
24306;BME280;12423;48.768;8.850;2023-02-13T00:39:46;98852.81;;;-0.43;100.00
24306;BME280;12423;48.768;8.850;2023-02-13T00:41:47;98850.28;;;-0.48;100.00
24306;BME280;12423;48.768;8.850;2023-02-13T00:43:49;98852.91;;;-0.48;100.00
24306;BME280;12423;48.768;8.850;2023-02-13T00:45:50;98855.47;;;-0.45;100.00
24306;BME280;12423;48.768;8.850;2023-02-13T00:47:51;98851.91;;;-0.41;100.00
24306;BME280;12423;48.768;8.850;2023-02-13T00:49:54;98845.03;;;-0.49;100.00
24306;BME280;12423;48.768;8.850;2023-02-13T00:51:55;98845.88;;;-0.47;100.00
24306;BME280;12423;48.768;8.850;2023-02-13T00:53:56;98852.03;;;-0.51;100.00
24306;BME280;12423;48.768;8.850;2023-02-13T00:55:57;98847.75;;;-0.57;100.00
24306;BME280;12423;48.768;8.850;2023-02-13T00:57:58;98850.34;;;-0.54;100.00
24306;BME280;12423;48.768;8.850;2023-02-13T00:59:59;98855.53;;;-0.49;100.00
24306;BME280;12423;48.768;8.850;2023-02-13T01:02:00;98861.66;;;-0.50;100.00
24306;BME280;12423;48.768;8.850;2023-02-13T01:04:01;98860.03;;;-0.58;100.00
24306;BME280;12423;48.768;8.850;2023-02-13T01:06:03;98859.25;;;-0.67;100.00
24306;BME280;12423;48.768;8.850;2023-02-13T01:08:04;98852.16;;;-0.59;100.00
24306;BME280;12423;48.768;8.850;2023-02-13T01:10:07;98855.66;;;-0.59;100.00
24306;BME280;12423;48.768;8.850;2023-02-13T01:12:08;98853.09;;;-0.65;100.00
24306;BME280;12423;48.768;8.850;2023-02-13T01:14:09;98857.50;;;-0.67;100.00
24306;BME280;12423;48.768;8.850;2023-02-13T01:16:10;98847.94;;;-0.71;100.00
24306;BME280;12423;48.768;8.850;2023-02-13T01:18:13;98850.44;;;-0.63;100.00
24306;BME280;12423;48.768;8.850;2023-02-13T01:20:14;98840.81;;;-0.63;100.00
24306;BME280;12423;48.768;8.850;2023-02-13T01:22:15;98844.31;;;-0.62;100.00
24306;BME280;12423;48.768;8.850;2023-02-13T01:24:16;98845.13;;;-0.59;100.00
24306;BME280;12423;48.768;8.850;2023-02-13T01:26:21;98837.38;;;-0.68;100.00
24306;BME280;12423;48.768;8.850;2023-02-13T01:28:24;98845.31;;;-0.72;100.00
24306;BME280;12423;48.768;8.850;2023-02-13T01:30:25;98839.16;;;-0.70;100.00
24306;BME280;12423;48.768;8.850;2023-02-13T01:32:26;98830.41;;;-0.70;100.00
24306;BME280;12423;48.768;8.850;2023-02-13T01:34:27;98833.94;;;-0.75;100.00
24306;BME280;12423;48.768;8.850;2023-02-13T01:36:28;98831.28;;;-0.71;100.00
24306;BME280;12423;48.768;8.850;2023-02-13T01:38:29;98834.88;;;-0.77;100.00
24306;BME280;12423;48.768;8.850;2023-02-13T01:40:30;98826.03;;;-0.70;100.00
24306;BME280;12423;48.768;8.850;2023-02-13T01:42:34;98829.47;;;-0.65;100.00
24306;BME280;12423;48.768;8.850;2023-02-13T01:44:51;98832.22;;;-0.74;100.00
24306;BME280;12423;48.768;8.850;2023-02-13T01:46:53;98833.09;;;-0.77;100.00
24306;BME280;12423;48.768;8.850;2023-02-13T01:48:58;98834.84;;;-0.74;100.00
24306;BME280;12423;48.768;8.850;2023-02-13T01:51:09;98837.47;;;-0.74;100.00
24306;BME280;12423;48.768;8.850;2023-02-13T01:55:17;98830.69;;;-0.94;100.00
24306;BME280;12423;48.768;8.850;2023-02-13T01:57:20;98828.03;;;-0.92;100.00
24306;BME280;12423;48.768;8.850;2023-02-13T01:59:29;98832.38;;;-0.89;100.00
24306;BME280;12423;48.768;8.850;2023-02-13T02:01:33;98834.97;;;-0.88;100.00
24306;BME280;12423;48.768;8.850;2023-02-13T02:03:38;98828.13;;;-1.00;100.00
24306;BME280;12423;48.768;8.850;2023-02-13T02:05:44;98831.56;;;-0.95;100.00
24306;BME280;12423;48.768;8.850;2023-02-13T02:07:46;98827.22;;;-0.96;100.00
24306;BME280;12423;48.768;8.850;2023-02-13T02:09:48;98825.47;;;-0.95;100.00
24306;BME280;12423;48.768;8.850;2023-02-13T02:12:11;98829.78;;;-0.94;100.00
24306;BME280;12423;48.768;8.850;2023-02-13T02:14:14;98841.19;;;-0.95;100.00
24306;BME280;12423;48.768;8.850;2023-02-13T02:16:16;98834.31;;;-1.05;100.00
24306;BME280;12423;48.768;8.850;2023-02-13T02:18:19;98829.00;;;-1.01;100.00
24306;BME280;12423;48.768;8.850;2023-02-13T02:30:10;98835.16;;;-1.03;100.00
24306;BME280;12423;48.768;8.850;2023-02-13T02:32:42;98833.38;;;-1.01;100.00
24306;BME280;12423;48.768;8.850;2023-02-13T02:34:55;98819.38;;;-0.99;100.00
24306;BME280;12423;48.768;8.850;2023-02-13T02:39:36;98834.34;;;-1.08;100.00
24306;BME280;12423;48.768;8.850;2023-02-13T02:42:12;98824.69;;;-1.05;100.00
24306;BME280;12423;48.768;8.850;2023-02-13T02:44:32;98821.19;;;-1.02;100.00
24306;BME280;12423;48.768;8.850;2023-02-13T02:47:39;98822.09;;;-1.08;100.00
24306;BME280;12423;48.768;8.850;2023-02-13T02:49:31;98820.47;;;-1.18;100.00
24306;BME280;12423;48.768;8.850;2023-02-13T02:52:06;98824.84;;;-1.19;100.00
24306;BME280;12423;48.768;8.850;2023-02-13T02:54:16;98821.28;;;-1.13;100.00
24306;BME280;12423;48.768;8.850;2023-02-13T02:56:43;98826.56;;;-1.18;100.00
24306;BME280;12423;48.768;8.850;2023-02-13T02:58:51;98822.22;;;-1.20;100.00
24306;BME280;12423;48.768;8.850;2023-02-13T03:01:15;98827.41;;;-1.14;100.00
24306;BME280;12423;48.768;8.850;2023-02-13T03:03:36;98826.59;;;-1.22;100.00
24306;BME280;12423;48.768;8.850;2023-02-13T03:05:57;98829.22;;;-1.22;100.00
24306;BME280;12423;48.768;8.850;2023-02-13T03:08:14;98826.69;;;-1.30;100.00
24306;BME280;12423;48.768;8.850;2023-02-13T03:10:37;98825.88;;;-1.34;100.00
24306;BME280;12423;48.768;8.850;2023-02-13T03:13:03;98824.88;;;-1.22;100.00
24306;BME280;12423;48.768;8.850;2023-02-13T03:15:22;98829.16;;;-1.16;100.00
24306;BME280;12423;48.768;8.850;2023-02-13T03:17:26;98827.53;;;-1.26;100.00
24306;BME280;12423;48.768;8.850;2023-02-13T03:22:44;98828.53;;;-1.38;100.00
24306;BME280;12423;48.768;8.850;2023-02-13T03:29:42;98824.97;;;-1.33;100.00
24306;BME280;12423;48.768;8.850;2023-02-13T03:34:37;98826.75;;;-1.38;100.00
24306;BME280;12423;48.768;8.850;2023-02-13T03:37:02;98827.63;;;-1.39;100.00
24306;BME280;12423;48.768;8.850;2023-02-13T03:39:36;98827.59;;;-1.33;100.00
24306;BME280;12423;48.768;8.850;2023-02-13T03:44:40;98832.03;;;-1.39;100.00
24306;BME280;12423;48.768;8.850;2023-02-13T03:46:47;98839.03;;;-1.38;100.00
24306;BME280;12423;48.768;8.850;2023-02-13T03:48:50;98843.50;;;-1.51;100.00
24306;BME280;12423;48.768;8.850;2023-02-13T03:51:11;98836.50;;;-1.54;100.00
24306;BME280;12423;48.768;8.850;2023-02-13T03:53:14;98835.66;;;-1.56;100.00
24306;BME280;12423;48.768;8.850;2023-02-13T03:55:25;98834.75;;;-1.50;100.00
24306;BME280;12423;48.768;8.850;2023-02-13T03:57:49;98839.09;;;-1.49;100.00
24306;BME280;12423;48.768;8.850;2023-02-13T04:00:14;98841.75;;;-1.55;100.00
24306;BME280;12423;48.768;8.850;2023-02-13T04:02:21;98847.03;;;-1.57;100.00
24306;BME280;12423;48.768;8.850;2023-02-13T04:04:39;98853.06;;;-1.47;100.00
24306;BME280;12423;48.768;8.850;2023-02-13T04:06:51;98854.84;;;-1.51;100.00
24306;BME280;12423;48.768;8.850;2023-02-13T04:08:53;98854.81;;;-1.46;100.00
24306;BME280;12423;48.768;8.850;2023-02-13T04:11:04;98860.13;;;-1.55;100.00
24306;BME280;12423;48.768;8.850;2023-02-13T04:13:14;98853.16;;;-1.56;100.00
24306;BME280;12423;48.768;8.850;2023-02-13T04:15:21;98857.50;;;-1.55;100.00
24306;BME280;12423;48.768;8.850;2023-02-13T04:17:47;98856.59;;;-1.51;100.00
24306;BME280;12423;48.768;8.850;2023-02-13T04:19:50;98859.22;;;-1.51;100.00
24306;BME280;12423;48.768;8.850;2023-02-13T04:21:57;98862.72;;;-1.52;100.00
24306;BME280;12423;48.768;8.850;2023-02-13T04:23:59;98858.38;;;-1.55;100.00
24306;BME280;12423;48.768;8.850;2023-02-13T04:26:03;98852.38;;;-1.69;100.00
24306;BME280;12423;48.768;8.850;2023-02-13T04:28:06;98862.88;;;-1.71;100.00
24306;BME280;12423;48.768;8.850;2023-02-13T04:30:07;98861.03;;;-1.59;100.00
24306;BME280;12423;48.768;8.850;2023-02-13T04:32:10;98865.34;;;-1.55;100.00
24306;BME280;12423;48.768;8.850;2023-02-13T04:34:11;98866.16;;;-1.45;100.00
24306;BME280;12423;48.768;8.850;2023-02-13T04:36:12;98861.00;;;-1.53;100.00
24306;BME280;12423;48.768;8.850;2023-02-13T04:38:13;98862.72;;;-1.55;100.00
24306;BME280;12423;48.768;8.850;2023-02-13T04:40:14;98864.50;;;-1.54;100.00
24306;BME280;12423;48.768;8.850;2023-02-13T04:42:15;98863.59;;;-1.52;100.00
24306;BME280;12423;48.768;8.850;2023-02-13T04:44:16;98862.84;;;-1.64;100.00
24306;BME280;12423;48.768;8.850;2023-02-13T04:46:17;98862.84;;;-1.69;100.00
24306;BME280;12423;48.768;8.850;2023-02-13T04:48:18;98858.56;;;-1.75;100.00
24306;BME280;12423;48.768;8.850;2023-02-13T04:50:19;98852.44;;;-1.77;100.00
24306;BME280;12423;48.768;8.850;2023-02-13T04:52:21;98857.63;;;-1.71;100.00
24306;BME280;12423;48.768;8.850;2023-02-13T04:54:22;98856.78;;;-1.74;100.00
24306;BME280;12423;48.768;8.850;2023-02-13T04:56:23;98859.38;;;-1.70;100.00
24306;BME280;12423;48.768;8.850;2023-02-13T04:58:24;98858.56;;;-1.75;100.00
24306;BME280;12423;48.768;8.850;2023-02-13T05:00:26;98866.34;;;-1.72;100.00
24306;BME280;12423;48.768;8.850;2023-02-13T05:02:27;98862.84;;;-1.66;100.00
24306;BME280;12423;48.768;8.850;2023-02-13T05:04:28;98869.03;;;-1.73;100.00
24306;BME280;12423;48.768;8.850;2023-02-13T05:06:29;98862.88;;;-1.74;100.00
24306;BME280;12423;48.768;8.850;2023-02-13T05:08:30;98864.66;;;-1.76;100.00
24306;BME280;12423;48.768;8.850;2023-02-13T05:10:31;98862.03;;;-1.73;100.00
24306;BME280;12423;48.768;8.850;2023-02-13T05:12:33;98853.31;;;-1.76;100.00
24306;BME280;12423;48.768;8.850;2023-02-13T05:14:34;98853.31;;;-1.73;100.00
24306;BME280;12423;48.768;8.850;2023-02-13T05:16:35;98856.81;;;-1.79;100.00
24306;BME280;12423;48.768;8.850;2023-02-13T05:18:36;98851.59;;;-1.83;100.00
24306;BME280;12423;48.768;8.850;2023-02-13T05:20:37;98856.00;;;-1.87;100.00
24306;BME280;12423;48.768;8.850;2023-02-13T05:22:50;98855.97;;;-1.82;100.00
24306;BME280;12423;48.768;8.850;2023-02-13T05:25:26;98856.03;;;-1.90;100.00
24306;BME280;12423;48.768;8.850;2023-02-13T05:27:27;98861.28;;;-1.92;100.00
24306;BME280;12423;48.768;8.850;2023-02-13T05:29:28;98852.56;;;-1.92;100.00
24306;BME280;12423;48.768;8.850;2023-02-13T05:31:29;98861.28;;;-1.93;100.00
24306;BME280;12423;48.768;8.850;2023-02-13T05:33:30;98863.03;;;-1.95;100.00
24306;BME280;12423;48.768;8.850;2023-02-13T05:35:31;98863.97;;;-2.04;100.00
24306;BME280;12423;48.768;8.850;2023-02-13T05:37:32;98858.72;;;-1.99;100.00
24306;BME280;12423;48.768;8.850;2023-02-13T05:39:33;98863.03;;;-1.95;100.00
24306;BME280;12423;48.768;8.850;2023-02-13T05:41:33;98864.81;;;-1.99;100.00
24306;BME280;12423;48.768;8.850;2023-02-13T05:43:34;98862.19;;;-1.96;100.00
24306;BME280;12423;48.768;8.850;2023-02-13T05:45:35;98867.41;;;-1.96;100.00
24306;BME280;12423;48.768;8.850;2023-02-13T05:47:36;98863.88;;;-1.90;100.00
24306;BME280;12423;48.768;8.850;2023-02-13T05:49:37;98866.53;;;-1.96;100.00
24306;BME280;12423;48.768;8.850;2023-02-13T05:51:38;98862.22;;;-2.00;100.00
24306;BME280;12423;48.768;8.850;2023-02-13T05:53:39;98863.06;;;-1.98;100.00
24306;BME280;12423;48.768;8.850;2023-02-13T05:55:40;98864.84;;;-2.02;100.00
24306;BME280;12423;48.768;8.850;2023-02-13T05:57:41;98863.06;;;-2.01;100.00
24306;BME280;12423;48.768;8.850;2023-02-13T05:59:42;98857.91;;;-2.08;100.00
24306;BME280;12423;48.768;8.850;2023-02-13T06:01:43;98863.97;;;-2.02;100.00
24306;BME280;12423;48.768;8.850;2023-02-13T06:03:44;98867.44;;;-1.99;100.00
24306;BME280;12423;48.768;8.850;2023-02-13T06:05:45;98870.06;;;-1.97;100.00
24306;BME280;12423;48.768;8.850;2023-02-13T06:07:46;98870.06;;;-2.00;100.00
24306;BME280;12423;48.768;8.850;2023-02-13T06:09:47;98871.84;;;-2.04;100.00
24306;BME280;12423;48.768;8.850;2023-02-13T06:11:48;98865.69;;;-2.00;100.00
24306;BME280;12423;48.768;8.850;2023-02-13T06:13:49;98863.97;;;-1.99;100.00
24306;BME280;12423;48.768;8.850;2023-02-13T06:15:51;98863.16;;;-2.11;100.00
24306;BME280;12423;48.768;8.850;2023-02-13T06:17:52;98860.53;;;-2.12;100.00
24306;BME280;12423;48.768;8.850;2023-02-13T06:19:53;98857.03;;;-2.10;100.00
24306;BME280;12423;48.768;8.850;2023-02-13T06:21:54;98859.59;;;-2.02;100.00
24306;BME280;12423;48.768;8.850;2023-02-13T06:23:55;98860.53;;;-2.09;100.00
24306;BME280;12423;48.768;8.850;2023-02-13T06:26:01;98854.41;;;-2.10;100.00
24306;BME280;12423;48.768;8.850;2023-02-13T06:28:03;98861.41;;;-2.15;100.00
24306;BME280;12423;48.768;8.850;2023-02-13T06:30:05;98863.16;;;-2.12;100.00
24306;BME280;12423;48.768;8.850;2023-02-13T06:32:06;98856.25;;;-2.21;100.00
24306;BME280;12423;48.768;8.850;2023-02-13T06:34:07;98851.03;;;-2.26;100.00
24306;BME280;12423;48.768;8.850;2023-02-13T06:36:08;98852.72;;;-2.17;100.00
24306;BME280;12423;48.768;8.850;2023-02-13T06:38:09;98853.56;;;-2.15;100.00
24306;BME280;12423;48.768;8.850;2023-02-13T06:40:11;98851.00;;;-2.24;100.00
24306;BME280;12423;48.768;8.850;2023-02-13T06:42:12;98852.72;;;-2.17;100.00
24306;BME280;12423;48.768;8.850;2023-02-13T06:44:13;98848.31;;;-2.12;100.00
24306;BME280;12423;48.768;8.850;2023-02-13T06:46:14;98856.16;;;-2.12;100.00
24306;BME280;12423;48.768;8.850;2023-02-13T06:48:15;98856.19;;;-2.15;100.00
24306;BME280;12423;48.768;8.850;2023-02-13T06:50:16;98857.06;;;-2.16;100.00
24306;BME280;12423;48.768;8.850;2023-02-13T06:52:18;98852.66;;;-2.09;100.00
24306;BME280;12423;48.768;8.850;2023-02-13T06:54:19;98852.72;;;-2.20;100.00
24306;BME280;12423;48.768;8.850;2023-02-13T06:56:20;98857.91;;;-2.11;100.00
24306;BME280;12423;48.768;8.850;2023-02-13T06:58:22;98861.41;;;-2.13;100.00
24306;BME280;12423;48.768;8.850;2023-02-13T07:00:24;98868.38;;;-2.09;100.00
24306;BME280;12423;48.768;8.850;2023-02-13T07:02:26;98868.31;;;-2.01;100.00
24306;BME280;12423;48.768;8.850;2023-02-13T07:04:28;98866.59;;;-2.02;100.00
24306;BME280;12423;48.768;8.850;2023-02-13T07:06:29;98867.44;;;-1.99;100.00
24306;BME280;12423;48.768;8.850;2023-02-13T07:08:30;98864.81;;;-2.00;100.00
24306;BME280;12423;48.768;8.850;2023-02-13T07:10:31;98870.09;;;-2.04;100.00
24306;BME280;12423;48.768;8.850;2023-02-13T07:12:32;98871.81;;;-2.01;100.00
24306;BME280;12423;48.768;8.850;2023-02-13T07:14:34;98869.22;;;-2.01;100.00
24306;BME280;12423;48.768;8.850;2023-02-13T07:16:35;98870.06;;;-2.00;100.00
24306;BME280;12423;48.768;8.850;2023-02-13T07:18:36;98870.03;;;-1.94;100.00
24306;BME280;12423;48.768;8.850;2023-02-13T07:20:37;98881.41;;;-1.98;100.00
24306;BME280;12423;48.768;8.850;2023-02-13T07:22:38;98876.97;;;-1.87;100.00
24306;BME280;12423;48.768;8.850;2023-02-13T07:24:39;98876.84;;;-1.72;100.00
24306;BME280;12423;48.768;8.850;2023-02-13T07:26:40;98882.06;;;-1.70;100.00
24306;BME280;12423;48.768;8.850;2023-02-13T07:28:41;98882.94;;;-1.67;100.00
24306;BME280;12423;48.768;8.850;2023-02-13T07:30:42;98884.50;;;-1.47;100.00
24306;BME280;12423;48.768;8.850;2023-02-13T07:32:43;98880.06;;;-1.37;100.00
24306;BME280;12423;48.768;8.850;2023-02-13T07:34:44;98883.59;;;-1.38;100.00
24306;BME280;12423;48.768;8.850;2023-02-13T07:36:45;98882.66;;;-1.31;100.00
24306;BME280;12423;48.768;8.850;2023-02-13T07:38:46;98888.69;;;-1.24;100.00
24306;BME280;12423;48.768;8.850;2023-02-13T07:40:47;98893.06;;;-1.20;100.00
24306;BME280;12423;48.768;8.850;2023-02-13T07:42:48;98884.31;;;-1.25;100.00
24306;BME280;12423;48.768;8.850;2023-02-13T07:44:49;98886.00;;;-1.15;100.00
24306;BME280;12423;48.768;8.850;2023-02-13T07:46:50;98885.00;;;-1.02;100.00
24306;BME280;12423;48.768;8.850;2023-02-13T07:48:51;98883.22;;;-1.00;100.00
24306;BME280;12423;48.768;8.850;2023-02-13T07:50:54;98883.22;;;-1.00;100.00
24306;BME280;12423;48.768;8.850;2023-02-13T07:53:00;98883.19;;;-0.97;100.00
24306;BME280;12423;48.768;8.850;2023-02-13T07:55:01;98873.56;;;-0.96;100.00
24306;BME280;12423;48.768;8.850;2023-02-13T07:57:03;98874.38;;;-0.93;100.00
24306;BME280;12423;48.768;8.850;2023-02-13T07:59:04;98873.50;;;-0.88;100.00
24306;BME280;12423;48.768;8.850;2023-02-13T08:01:09;98876.06;;;-0.84;100.00
24306;BME280;12423;48.768;8.850;2023-02-13T08:03:11;98874.22;;;-0.76;100.00
24306;BME280;12423;48.768;8.850;2023-02-13T08:05:12;98875.06;;;-0.72;100.00
24306;BME280;12423;48.768;8.850;2023-02-13T08:07:15;98870.63;;;-0.67;100.00
24306;BME280;12423;48.768;8.850;2023-02-13T08:09:18;98874.06;;;-0.62;100.00
24306;BME280;12423;48.768;8.850;2023-02-13T08:11:39;98875.81;;;-0.61;100.00
24306;BME280;12423;48.768;8.850;2023-02-13T08:13:55;98862.50;;;-0.48;100.00
24306;BME280;12423;48.768;8.850;2023-02-13T08:15:56;98866.88;;;-0.46;100.00
24306;BME280;12423;48.768;8.850;2023-02-13T08:17:57;98864.91;;;-0.30;100.00
24306;BME280;12423;48.768;8.850;2023-02-13T08:19:58;98865.69;;;-0.23;100.00
24306;BME280;12423;48.768;8.850;2023-02-13T08:21:59;98870.81;;;-0.14;100.00
24306;BME280;12423;48.768;8.850;2023-02-13T08:24:01;98868.03;;;0.00;100.00
24306;BME280;12423;48.768;8.850;2023-02-13T08:26:02;98868.56;;;0.22;100.00
24306;BME280;12423;48.768;8.850;2023-02-13T08:28:03;98864.88;;;0.32;100.00
24306;BME280;12423;48.768;8.850;2023-02-13T08:30:05;98867.34;;;0.43;100.00
24306;BME280;12423;48.768;8.850;2023-02-13T08:32:06;98863.72;;;0.50;100.00
24306;BME280;12423;48.768;8.850;2023-02-13T08:34:07;98863.59;;;0.60;100.00
24306;BME280;12423;48.768;8.850;2023-02-13T08:36:09;98867.88;;;0.65;100.00
24306;BME280;12423;48.768;8.850;2023-02-13T08:38:09;98866.09;;;0.66;100.00
24306;BME280;12423;48.768;8.850;2023-02-13T08:40:11;98864.16;;;0.76;100.00
24306;BME280;12423;48.768;8.850;2023-02-13T08:42:12;98861.50;;;0.77;100.00
24306;BME280;12423;48.768;8.850;2023-02-13T08:44:13;98862.13;;;0.93;100.00
24306;BME280;12423;48.768;8.850;2023-02-13T08:46:14;98861.19;;;0.96;100.00
24306;BME280;12423;48.768;8.850;2023-02-13T08:48:16;98861.81;;;1.08;100.00
24306;BME280;12423;48.768;8.850;2023-02-13T08:50:17;98864.44;;;1.10;100.00
24306;BME280;12423;48.768;8.850;2023-02-13T08:52:18;98861.59;;;1.22;100.00
24306;BME280;12423;48.768;8.850;2023-02-13T08:54:19;98864.84;;;1.34;100.00
24306;BME280;12423;48.768;8.850;2023-02-13T08:56:19;98853.28;;;1.42;100.00
24306;BME280;12423;48.768;8.850;2023-02-13T08:58:21;98861.94;;;1.49;100.00
24306;BME280;12423;48.768;8.850;2023-02-13T09:00:22;98855.81;;;1.49;100.00
24306;BME280;12423;48.768;8.850;2023-02-13T09:02:23;98846.72;;;1.63;100.00
24306;BME280;12423;48.768;8.850;2023-02-13T09:04:24;98857.84;;;1.75;100.00
24306;BME280;12423;48.768;8.850;2023-02-13T09:06:25;98857.78;;;1.79;100.00
24306;BME280;12423;48.768;8.850;2023-02-13T09:08:27;98861.81;;;1.96;100.00
24306;BME280;12423;48.768;8.850;2023-02-13T09:10:29;98851.91;;;2.06;100.00
24306;BME280;12423;48.768;8.850;2023-02-13T09:12:31;98851.03;;;2.07;100.00
24306;BME280;12423;48.768;8.850;2023-02-13T09:14:32;98848.09;;;2.19;100.00
24306;BME280;12423;48.768;8.850;2023-02-13T09:16:34;98843.38;;;2.33;100.00
24306;BME280;12423;48.768;8.850;2023-02-13T09:18:35;98848.47;;;2.41;100.00
24306;BME280;12423;48.768;8.850;2023-02-13T09:20:36;98849.81;;;2.57;100.00
24306;BME280;12423;48.768;8.850;2023-02-13T09:22:37;98849.81;;;2.57;100.00
24306;BME280;12423;48.768;8.850;2023-02-13T09:24:38;98850.34;;;2.70;100.00
24306;BME280;12423;48.768;8.850;2023-02-13T09:26:39;98854.41;;;2.84;100.00
24306;BME280;12423;48.768;8.850;2023-02-13T09:28:40;98848.16;;;2.88;100.00
24306;BME280;12423;48.768;8.850;2023-02-13T09:30:41;98854.81;;;3.03;100.00
24306;BME280;12423;48.768;8.850;2023-02-13T09:32:42;98852.78;;;3.12;100.00
24306;BME280;12423;48.768;8.850;2023-02-13T09:34:43;98848.03;;;3.25;100.00
24306;BME280;12423;48.768;8.850;2023-02-13T09:36:44;98844.84;;;3.45;100.00
24306;BME280;12423;48.768;8.850;2023-02-13T09:38:53;98846.81;;;3.68;100.00
24306;BME280;12423;48.768;8.850;2023-02-13T09:40:55;98849.03;;;3.82;100.00
24306;BME280;12423;48.768;8.850;2023-02-13T09:43:24;98845.22;;;3.93;100.00
24306;BME280;12423;48.768;8.850;2023-02-13T09:45:27;98844.94;;;4.02;100.00
24306;BME280;12423;48.768;8.850;2023-02-13T09:47:33;98845.94;;;3.98;100.00
24306;BME280;12423;48.768;8.850;2023-02-13T09:49:37;98849.28;;;4.04;100.00
24306;BME280;12423;48.768;8.850;2023-02-13T09:51:47;98843.09;;;4.04;100.00
24306;BME280;12423;48.768;8.850;2023-02-13T09:56:03;98846.09;;;4.21;100.00
24306;BME280;12423;48.768;8.850;2023-02-13T09:58:32;98849.41;;;4.28;100.00
24306;BME280;12423;48.768;8.850;2023-02-13T10:00:46;98859.94;;;4.30;100.00
24306;BME280;12423;48.768;8.850;2023-02-13T10:02:52;98858.09;;;4.32;100.00
24306;BME280;12423;48.768;8.850;2023-02-13T10:09:30;98856.94;;;4.40;100.00
24306;BME280;12423;48.768;8.850;2023-02-13T10:16:23;98858.41;;;4.51;100.00
24306;BME280;12423;48.768;8.850;2023-02-13T10:18:37;98863.84;;;4.46;100.00
24306;BME280;12423;48.768;8.850;2023-02-13T10:20:45;98868.00;;;4.53;100.00
24306;BME280;12423;48.768;8.850;2023-02-13T10:22:51;98862.72;;;4.53;100.00
24306;BME280;12423;48.768;8.850;2023-02-13T10:25:18;98861.00;;;4.52;100.00
24306;BME280;12423;48.768;8.850;2023-02-13T10:27:22;98859.00;;;4.59;100.00
24306;BME280;12423;48.768;8.850;2023-02-13T10:29:41;98861.00;;;4.52;100.00
24306;BME280;12423;48.768;8.850;2023-02-13T10:32:07;98857.31;;;4.56;100.00
24306;BME280;12423;48.768;8.850;2023-02-13T10:34:16;98854.44;;;4.64;100.00
24306;BME280;12423;48.768;8.850;2023-02-13T10:36:21;98859.72;;;4.64;100.00
24306;BME280;12423;48.768;8.850;2023-02-13T10:38:28;98858.53;;;4.73;100.00
24306;BME280;12423;48.768;8.850;2023-02-13T10:40:32;98854.88;;;4.77;100.00
24306;BME280;12423;48.768;8.850;2023-02-13T10:42:44;98857.34;;;4.82;100.00
24306;BME280;12423;48.768;8.850;2023-02-13T10:45:00;98857.22;;;4.86;100.00
24306;BME280;12423;48.768;8.850;2023-02-13T10:57:49;98854.91;;;5.27;100.00
24306;BME280;12423;48.768;8.850;2023-02-13T11:04:18;98848.81;;;5.49;100.00
24306;BME280;12423;48.768;8.850;2023-02-13T11:06:20;98846.91;;;5.52;100.00
24306;BME280;12423;48.768;8.850;2023-02-13T11:08:31;98846.41;;;5.66;100.00
24306;BME280;12423;48.768;8.850;2023-02-13T11:10:33;98841.97;;;5.67;100.00
24306;BME280;12423;48.768;8.850;2023-02-13T11:12:34;98848.75;;;5.74;100.00
24306;BME280;12423;48.768;8.850;2023-02-13T11:14:35;98838.81;;;5.81;100.00
24306;BME280;12423;48.768;8.850;2023-02-13T11:16:48;98836.03;;;5.84;100.00
24306;BME280;12423;48.768;8.850;2023-02-13T11:18:50;98843.97;;;5.84;100.00
24306;BME280;12423;48.768;8.850;2023-02-13T11:25:29;98826.16;;;6.33;100.00
24306;BME280;12423;48.768;8.850;2023-02-13T11:27:34;98825.28;;;6.77;100.00
24306;BME280;12423;48.768;8.850;2023-02-13T11:29:36;98828.47;;;7.26;100.00
24306;BME280;12423;48.768;8.850;2023-02-13T11:31:37;98817.47;;;7.92;100.00
24306;BME280;12423;48.768;8.850;2023-02-13T11:33:40;98817.84;;;8.59;100.00
24306;BME280;12423;48.768;8.850;2023-02-13T11:35:41;98819.63;;;9.29;100.00
24306;BME280;12423;48.768;8.850;2023-02-13T11:37:42;98810.38;;;10.65;97.17
24306;BME280;12423;48.768;8.850;2023-02-13T11:39:45;98807.53;;;12.01;85.98
24306;BME280;12423;48.768;8.850;2023-02-13T11:41:48;98812.09;;;13.35;78.39
24306;BME280;12423;48.768;8.850;2023-02-13T11:43:58;98810.09;;;14.38;72.29
24306;BME280;12423;48.768;8.850;2023-02-13T11:48:19;98807.97;;;16.40;61.07
24306;BME280;12423;48.768;8.850;2023-02-13T11:50:30;98801.38;;;16.76;57.67
24306;BME280;12423;48.768;8.850;2023-02-13T11:52:34;98813.84;;;17.42;54.24
24306;BME280;12423;48.768;8.850;2023-02-13T11:54:38;98806.56;;;17.64;52.54
24306;BME280;12423;48.768;8.850;2023-02-13T11:56:49;98801.34;;;18.03;51.36